^^
Saratoga-Weather Station Historical Data
Daily Summary for March 17, 2020 Units:  Both    English   Metric
Daily Weekly Monthly Yearly Custom
  High: Low: Average:
Temperature: 76.1 °F /  24.5 °C 46.9 °F /  8.3 °C 61.3 °F /  16.3 °C
Dew Point: 54.1 °F /  12.3 °C 44.8 °F /  7.1 °C 48.9 °F /  9.4 °C
Humidity: 94% 38% 67%
Wind Speed: 6mph /  9.7km/h - 0.8mph /  1.3km/h
Wind Gust: 8mph /  12.9km/h - -
Wind- - ESE
Pressure: 30 in /  1015.2 hPa 29.9 in /  1011.5 hPa -
Precipitation: 0 in /  0.0 mm    
Historical Graphs
 
 
Tabular Data for March 17, 2020
Time Temperature Dew Point Pressure Wind Wind Speed Wind Gust Humidity Rainfall Rate (Hourly) solar
00:02 58.3 °F /  14.6 °C 47.8 °F /  8.8 °C 30in /  1014.6hPa Calm     68% 0in /  0.0mm 0 W/m2
00:07 57.7 °F /  14.3 °C 47.7 °F /  8.7 °C 30in /  1014.9hPa South 0.9mph /  1.4km/h 1mph /  1.6km/h 69% 0in /  0.0mm 0 W/m2
00:13 57.2 °F /  14 °C 47.5 °F /  8.6 °C 30in /  1014.6hPa Calm   1mph /  1.6km/h 70% 0in /  0.0mm 0 W/m2
00:18 56.8 °F /  13.8 °C 47.1 °F /  8.4 °C 30in /  1014.6hPa Calm     70% 0in /  0.0mm 0 W/m2
00:23 56.5 °F /  13.6 °C 47.1 °F /  8.4 °C 30in /  1014.6hPa Calm     71% 0in /  0.0mm 0 W/m2
00:28 56.1 °F /  13.4 °C 47.3 °F /  8.5 °C 30in /  1014.6hPa Calm     72% 0in /  0.0mm 0 W/m2
00:33 55.8 °F /  13.2 °C 47.3 °F /  8.5 °C 30in /  1014.6hPa Calm   1mph /  1.6km/h 73% 0in /  0.0mm 0 W/m2
00:38 55.6 °F /  13.1 °C 47.5 °F /  8.6 °C 30in /  1014.9hPa South 0.9mph /  1.4km/h 1mph /  1.6km/h 74% 0in /  0.0mm 0 W/m2
00:43 55.2 °F /  12.9 °C 47.1 °F /  8.4 °C 30in /  1014.9hPa Calm   1mph /  1.6km/h 74% 0in /  0.0mm 0 W/m2
00:48 55 °F /  12.8 °C 47.3 °F /  8.5 °C 30in /  1014.6hPa Calm     75% 0in /  0.0mm 0 W/m2
00:53 54.9 °F /  12.7 °C 47.5 °F /  8.6 °C 30in /  1014.9hPa Calm   1mph /  1.6km/h 76% 0in /  0.0mm 0 W/m2
00:58 54.5 °F /  12.5 °C 47.1 °F /  8.4 °C 30in /  1014.9hPa Calm     76% 0in /  0.0mm 0 W/m2
01:03 54.1 °F /  12.3 °C 47.1 °F /  8.4 °C 30in /  1014.9hPa Calm     77% 0in /  0.0mm 0 W/m2
01:08 54.1 °F /  12.3 °C 47.1 °F /  8.4 °C 30in /  1014.9hPa Calm     77% 0in /  0.0mm 0 W/m2
01:13 54 °F /  12.2 °C 47.3 °F /  8.5 °C 30in /  1014.9hPa Calm     78% 0in /  0.0mm 0 W/m2
01:18 53.6 °F /  12 °C 46.9 °F /  8.3 °C 30in /  1014.9hPa Calm     78% 0in /  0.0mm 0 W/m2
01:23 53.4 °F /  11.9 °C 47.1 °F /  8.4 °C 30in /  1014.9hPa Calm     79% 0in /  0.0mm 0 W/m2
01:28 53.2 °F /  11.8 °C 46.9 °F /  8.3 °C 30in /  1014.9hPa Calm     79% 0in /  0.0mm 0 W/m2
01:33 53.2 °F /  11.8 °C 47.3 °F /  8.5 °C 30in /  1014.9hPa Calm     80% 0in /  0.0mm 0 W/m2
01:38 53.1 °F /  11.7 °C 47.1 °F /  8.4 °C 30in /  1014.9hPa Calm     80% 0in /  0.0mm 0 W/m2
01:43 53.1 °F /  11.7 °C 47.1 °F /  8.4 °C 30in /  1014.9hPa Calm     80% 0in /  0.0mm 0 W/m2
01:48 53.1 °F /  11.7 °C 47.1 °F /  8.4 °C 30in /  1014.9hPa NW 2mph /  3.2km/h 2mph /  3.2km/h 80% 0in /  0.0mm 0 W/m2
01:53 53.1 °F /  11.7 °C 47.1 °F /  8.4 °C 30in /  1014.9hPa Calm     80% 0in /  0.0mm 0 W/m2
01:58 53.1 °F /  11.7 °C 47.1 °F /  8.4 °C 30in /  1014.9hPa Calm     80% 0in /  0.0mm 0 W/m2
02:03 52.9 °F /  11.6 °C 46.9 °F /  8.3 °C 30in /  1014.9hPa Calm     80% 0in /  0.0mm 0 W/m2
02:08 52.9 °F /  11.6 °C 46.9 °F /  8.3 °C 30in /  1014.9hPa Calm     80% 0in /  0.0mm 0 W/m2
02:13 52.7 °F /  11.5 °C 46.8 °F /  8.2 °C 30in /  1014.9hPa Calm     80% 0in /  0.0mm 0 W/m2
02:18 52.5 °F /  11.4 °C 46.9 °F /  8.3 °C 30in /  1014.9hPa Calm   1mph /  1.6km/h 81% 0in /  0.0mm 0 W/m2
02:23 52.3 °F /  11.3 °C 46.8 °F /  8.2 °C 30in /  1014.9hPa Calm     81% 0in /  0.0mm 0 W/m2
02:28 52.2 °F /  11.2 °C 46.6 °F /  8.1 °C 30in /  1014.9hPa Calm     81% 0in /  0.0mm 0 W/m2
02:33 52.2 °F /  11.2 °C 46.8 °F /  8.2 °C 30in /  1014.6hPa Calm     82% 0in /  0.0mm 0 W/m2
02:38 52.2 °F /  11.2 °C 46.8 °F /  8.2 °C 30in /  1014.6hPa Calm     82% 0in /  0.0mm 0 W/m2
02:43 52 °F /  11.1 °C 46.6 °F /  8.1 °C 30in /  1014.6hPa Calm     82% 0in /  0.0mm 0 W/m2
02:48 52 °F /  11.1 °C 46.6 °F /  8.1 °C 30in /  1014.6hPa Calm     82% 0in /  0.0mm 0 W/m2
02:53 51.6 °F /  10.9 °C 46.2 °F /  7.9 °C 30in /  1014.9hPa Calm     82% 0in /  0.0mm 0 W/m2
02:58 51.4 °F /  10.8 °C 46.4 °F /  8 °C 30in /  1014.9hPa Calm     83% 0in /  0.0mm 0 W/m2
03:03 51.3 °F /  10.7 °C 46.2 °F /  7.9 °C 30in /  1014.6hPa Calm     83% 0in /  0.0mm 0 W/m2
03:08 51.3 °F /  10.7 °C 46.2 °F /  7.9 °C 30in /  1014.6hPa Calm     83% 0in /  0.0mm 0 W/m2
03:13 50.9 °F /  10.5 °C 46.2 °F /  7.9 °C 30in /  1014.6hPa Calm     84% 0in /  0.0mm 0 W/m2
03:18 50.7 °F /  10.4 °C 46 °F /  7.8 °C 30in /  1014.6hPa Calm     84% 0in /  0.0mm 0 W/m2
03:23 50.5 °F /  10.3 °C 46.2 °F /  7.9 °C 30in /  1014.6hPa Calm     85% 0in /  0.0mm 0 W/m2
03:28 50.5 °F /  10.3 °C 46.2 °F /  7.9 °C 30in /  1014.6hPa Calm     85% 0in /  0.0mm 0 W/m2
03:33 50.4 °F /  10.2 °C 46 °F /  7.8 °C 30in /  1014.6hPa Calm     85% 0in /  0.0mm 0 W/m2
03:38 50.2 °F /  10.1 °C 46.2 °F /  7.9 °C 30in /  1014.6hPa Calm   1mph /  1.6km/h 86% 0in /  0.0mm 0 W/m2
03:44 50.2 °F /  10.1 °C 46.2 °F /  7.9 °C 30in /  1014.6hPa Calm     86% 0in /  0.0mm 0 W/m2
03:49 50 °F /  10 °C 46 °F /  7.8 °C 30in /  1014.6hPa Calm     86% 0in /  0.0mm 0 W/m2
03:54 49.8 °F /  9.9 °C 45.9 °F /  7.7 °C 30in /  1014.6hPa Calm     86% 0in /  0.0mm 0 W/m2
03:59 49.6 °F /  9.8 °C 45.7 °F /  7.6 °C 30in /  1014.6hPa Calm     86% 0in /  0.0mm 0 W/m2
04:04 49.5 °F /  9.7 °C 45.5 °F /  7.5 °C 30in /  1014.9hPa Calm     86% 0in /  0.0mm 0 W/m2
04:09 49.5 °F /  9.7 °C 45.7 °F /  7.6 °C 30in /  1014.9hPa Calm     87% 0in /  0.0mm 0 W/m2
04:14 49.3 °F /  9.6 °C 45.9 °F /  7.7 °C 30in /  1014.9hPa Calm     88% 0in /  0.0mm 0 W/m2
04:19 49.3 °F /  9.6 °C 45.9 °F /  7.7 °C 30in /  1014.9hPa Calm     88% 0in /  0.0mm 0 W/m2
04:24 49.3 °F /  9.6 °C 45.9 °F /  7.7 °C 30in /  1014.9hPa Calm     88% 0in /  0.0mm 0 W/m2
04:29 48.9 °F /  9.4 °C 45.5 °F /  7.5 °C 30in /  1014.9hPa Calm     88% 0in /  0.0mm 0 W/m2
04:34 48.9 °F /  9.4 °C 45.5 °F /  7.5 °C 30in /  1014.9hPa Calm     88% 0in /  0.0mm 0 W/m2
04:39 48.7 °F /  9.3 °C 45.3 °F /  7.4 °C 30in /  1014.9hPa Calm     88% 0in /  0.0mm 0 W/m2
04:44 48.7 °F /  9.3 °C 45.7 °F /  7.6 °C 30in /  1014.9hPa Calm     89% 0in /  0.0mm 0 W/m2
04:49 48.6 °F /  9.2 °C 45.5 °F /  7.5 °C 30in /  1014.9hPa Calm     89% 0in /  0.0mm 0 W/m2
04:54 48.6 °F /  9.2 °C 45.5 °F /  7.5 °C 30in /  1014.9hPa Calm     89% 0in /  0.0mm 0 W/m2
04:59 48.6 °F /  9.2 °C 45.5 °F /  7.5 °C 30in /  1014.9hPa Calm     89% 0in /  0.0mm 0 W/m2
05:04 48.4 °F /  9.1 °C 45.3 °F /  7.4 °C 30in /  1014.9hPa Calm     89% 0in /  0.0mm 0 W/m2
05:09 48.4 °F /  9.1 °C 45.5 °F /  7.5 °C 30in /  1014.9hPa Calm     90% 0in /  0.0mm 0 W/m2
05:14 48.4 °F /  9.1 °C 45.5 °F /  7.5 °C 30in /  1014.9hPa Calm     90% 0in /  0.0mm 0 W/m2
05:19 48.2 °F /  9 °C 45.3 °F /  7.4 °C 30in /  1014.9hPa Calm     90% 0in /  0.0mm 0 W/m2
05:24 48 °F /  8.9 °C 45.1 °F /  7.3 °C 30in /  1014.9hPa Calm     90% 0in /  0.0mm 0 W/m2
05:29 48 °F /  8.9 °C 45.1 °F /  7.3 °C 30in /  1014.6hPa Calm     90% 0in /  0.0mm 0 W/m2
05:35 47.8 °F /  8.8 °C 45.3 °F /  7.4 °C 30in /  1014.6hPa Calm     91% 0in /  0.0mm 0 W/m2
05:40 47.8 °F /  8.8 °C 45.3 °F /  7.4 °C 30in /  1014.6hPa Calm     91% 0in /  0.0mm 0 W/m2
05:45 48 °F /  8.9 °C 45.5 °F /  7.5 °C 30in /  1014.6hPa Calm     91% 0in /  0.0mm 0 W/m2
05:50 47.8 °F /  8.8 °C 45.3 °F /  7.4 °C 30in /  1014.6hPa Calm     91% 0in /  0.0mm 0 W/m2
05:55 47.7 °F /  8.7 °C 45.1 °F /  7.3 °C 30in /  1014.6hPa Calm     91% 0in /  0.0mm 0 W/m2
06:00 47.7 °F /  8.7 °C 45.1 °F /  7.3 °C 30in /  1014.6hPa Calm     91% 0in /  0.0mm 0 W/m2
06:05 47.5 °F /  8.6 °C 45 °F /  7.2 °C 30in /  1014.6hPa Calm     91% 0in /  0.0mm 0 W/m2
06:10 47.5 °F /  8.6 °C 45 °F /  7.2 °C 30in /  1014.6hPa Calm     91% 0in /  0.0mm 0 W/m2
06:15 47.3 °F /  8.5 °C 44.8 °F /  7.1 °C 30in /  1014.6hPa Calm     91% 0in /  0.0mm 0 W/m2
06:20 47.3 °F /  8.5 °C 45.1 °F /  7.3 °C 30in /  1014.6hPa Calm     92% 0in /  0.0mm 0 W/m2
06:25 47.3 °F /  8.5 °C 45.1 °F /  7.3 °C 30in /  1014.6hPa Calm     92% 0in /  0.0mm 0 W/m2
06:30 47.1 °F /  8.4 °C 45 °F /  7.2 °C 30in /  1014.9hPa Calm     92% 0in /  0.0mm 0 W/m2
06:35 47.1 °F /  8.4 °C 45 °F /  7.2 °C 30in /  1014.6hPa Calm     92% 0in /  0.0mm 0 W/m2
06:40 46.9 °F /  8.3 °C 44.8 °F /  7.1 °C 30in /  1014.9hPa Calm     92% 0in /  0.0mm 5 W/m2
06:45 46.9 °F /  8.3 °C 44.8 °F /  7.1 °C 30in /  1014.9hPa Calm     92% 0in /  0.0mm 7 W/m2
06:50 46.9 °F /  8.3 °C 44.8 °F /  7.1 °C 30in /  1014.9hPa Calm     92% 0in /  0.0mm 11 W/m2
06:55 46.9 °F /  8.3 °C 45 °F /  7.2 °C 30in /  1014.9hPa NW 0.9mph /  1.4km/h 1mph /  1.6km/h 93% 0in /  0.0mm 16 W/m2
07:00 46.9 °F /  8.3 °C 45 °F /  7.2 °C 30in /  1014.9hPa Calm     93% 0in /  0.0mm 19 W/m2
07:05 46.9 °F /  8.3 °C 45 °F /  7.2 °C 30in /  1014.9hPa Calm     93% 0in /  0.0mm 23 W/m2
07:10 46.9 °F /  8.3 °C 45 °F /  7.2 °C 30in /  1014.9hPa Calm     93% 0in /  0.0mm 25 W/m2
07:15 46.9 °F /  8.3 °C 45 °F /  7.2 °C 30in /  1014.9hPa Calm     93% 0in /  0.0mm 26 W/m2
07:20 46.9 °F /  8.3 °C 45 °F /  7.2 °C 30in /  1014.9hPa Calm     93% 0in /  0.0mm 28 W/m2
07:25 47.1 °F /  8.4 °C 45.1 °F /  7.3 °C 30in /  1014.9hPa Calm     93% 0in /  0.0mm 28 W/m2
07:30 47.3 °F /  8.5 °C 45.3 °F /  7.4 °C 30in /  1014.9hPa Calm     93% 0in /  0.0mm 26 W/m2
07:35 47.5 °F /  8.6 °C 45.5 °F /  7.5 °C 30in /  1014.9hPa Calm     93% 0in /  0.0mm 25 W/m2
07:40 47.5 °F /  8.6 °C 45.5 °F /  7.5 °C 30in /  1014.9hPa Calm     93% 0in /  0.0mm 25 W/m2
07:45 47.7 °F /  8.7 °C 45.7 °F /  7.6 °C 30in /  1014.9hPa Calm     93% 0in /  0.0mm 35 W/m2
07:50 47.8 °F /  8.8 °C 46.2 °F /  7.9 °C 30in /  1014.9hPa Calm     94% 0in /  0.0mm 56 W/m2
07:56 48 °F /  8.9 °C 46.4 °F /  8 °C 30in /  1014.9hPa Calm     94% 0in /  0.0mm 84 W/m2
08:01 48.4 °F /  9.1 °C 46.8 °F /  8.2 °C 30in /  1015.2hPa Calm     94% 0in /  0.0mm 139 W/m2
08:06 48.7 °F /  9.3 °C 47.1 °F /  8.4 °C 30in /  1014.9hPa Calm     94% 0in /  0.0mm 151 W/m2
08:11 49.3 °F /  9.6 °C 47.7 °F /  8.7 °C 30in /  1015.2hPa Calm     94% 0in /  0.0mm 162 W/m2
08:16 49.8 °F /  9.9 °C 48.2 °F /  9 °C 30in /  1015.2hPa Calm     94% 0in /  0.0mm 174 W/m2
08:21 50.5 °F /  10.3 °C 48.6 °F /  9.2 °C 30in /  1014.9hPa Calm     93% 0in /  0.0mm 186 W/m2
08:26 51.3 °F /  10.7 °C 49.1 °F /  9.5 °C 30in /  1015.2hPa Calm     92% 0in /  0.0mm 200 W/m2
08:31 52 °F /  11.1 °C 49.5 °F /  9.7 °C 30in /  1015.2hPa Calm     91% 0in /  0.0mm 213 W/m2
08:36 52.7 °F /  11.5 °C 49.3 °F /  9.6 °C 30in /  1014.9hPa Calm     88% 0in /  0.0mm 225 W/m2
08:41 53.1 °F /  11.7 °C 48.9 °F /  9.4 °C 30in /  1014.9hPa Calm     86% 0in /  0.0mm 237 W/m2
08:46 53.6 °F /  12 °C 49.3 °F /  9.6 °C 30in /  1014.9hPa Calm     85% 0in /  0.0mm 253 W/m2
08:51 54 °F /  12.2 °C 48.9 °F /  9.4 °C 30in /  1014.9hPa Calm     83% 0in /  0.0mm 265 W/m2
08:56 54.3 °F /  12.4 °C 48.9 °F /  9.4 °C 30in /  1014.9hPa Calm     82% 0in /  0.0mm 279 W/m2
09:01 54.7 °F /  12.6 °C 48.9 °F /  9.4 °C 30in /  1014.9hPa East 2mph /  3.2km/h 2mph /  3.2km/h 81% 0in /  0.0mm 295 W/m2
09:06 54.7 °F /  12.6 °C 48.6 °F /  9.2 °C 30in /  1014.9hPa Calm   3mph /  4.8km/h 80% 0in /  0.0mm 308 W/m2
09:11 54.9 °F /  12.7 °C 48.7 °F /  9.3 °C 30in /  1014.9hPa Calm   1mph /  1.6km/h 80% 0in /  0.0mm 322 W/m2
09:16 55.2 °F /  12.9 °C 48.7 °F /  9.3 °C 30in /  1014.9hPa ENE 0.9mph /  1.4km/h 3mph /  4.8km/h 79% 0in /  0.0mm 334 W/m2
09:21 55.8 °F /  13.2 °C 49.3 °F /  9.6 °C 30in /  1014.9hPa Calm   1mph /  1.6km/h 79% 0in /  0.0mm 346 W/m2
09:26 56.1 °F /  13.4 °C 49.3 °F /  9.6 °C 30in /  1014.9hPa Calm   1mph /  1.6km/h 78% 0in /  0.0mm 360 W/m2
09:32 56.7 °F /  13.7 °C 49.5 °F /  9.7 °C 30in /  1014.9hPa Calm   2mph /  3.2km/h 77% 0in /  0.0mm 373 W/m2
09:37 56.8 °F /  13.8 °C 49.3 °F /  9.6 °C 30in /  1014.9hPa ESE 0.9mph /  1.4km/h 2mph /  3.2km/h 76% 0in /  0.0mm 387 W/m2
09:42 57.2 °F /  14 °C 49.3 °F /  9.6 °C 30in /  1014.9hPa Calm   2mph /  3.2km/h 75% 0in /  0.0mm 397 W/m2
09:47 57.7 °F /  14.3 °C 49.5 °F /  9.7 °C 30in /  1014.6hPa Calm   2mph /  3.2km/h 74% 0in /  0.0mm 63 W/m2
09:52 58.5 °F /  14.7 °C 50.2 °F /  10.1 °C 30in /  1014.6hPa Calm   1mph /  1.6km/h 74% 0in /  0.0mm 206 W/m2
09:57 59.4 °F /  15.2 °C 50.4 °F /  10.2 °C 30in /  1014.6hPa ESE 2.9mph /  4.7km/h 3mph /  4.8km/h 72% 0in /  0.0mm 431 W/m2
10:02 60.1 °F /  15.6 °C 50.2 °F /  10.1 °C 30in /  1014.6hPa NE 2mph /  3.2km/h 4mph /  6.4km/h 70% 0in /  0.0mm 445 W/m2
10:07 60.4 °F /  15.8 °C 50.2 °F /  10.1 °C 30in /  1014.6hPa East 2mph /  3.2km/h 3mph /  4.8km/h 69% 0in /  0.0mm 454 W/m2
10:12 61 °F /  16.1 °C 50.4 °F /  10.2 °C 30in /  1014.6hPa Calm   1mph /  1.6km/h 68% 0in /  0.0mm 457 W/m2
10:17 61.3 °F /  16.3 °C 51.1 °F /  10.6 °C 30in /  1014.6hPa NE 4mph /  6.4km/h 5mph /  8km/h 69% 0in /  0.0mm 478 W/m2
10:22 61.5 °F /  16.4 °C 50.5 °F /  10.3 °C 30in /  1014.6hPa ENE 2mph /  3.2km/h 2mph /  3.2km/h 67% 0in /  0.0mm 485 W/m2
10:27 62.1 °F /  16.7 °C 50.9 °F /  10.5 °C 30in /  1014.6hPa NNE 0.9mph /  1.4km/h 4mph /  6.4km/h 67% 0in /  0.0mm 497 W/m2
10:32 62.2 °F /  16.8 °C 50.7 °F /  10.4 °C 30in /  1014.6hPa ESE 2.9mph /  4.7km/h 5mph /  8km/h 66% 0in /  0.0mm 506 W/m2
10:37 63 °F /  17.2 °C 51.4 °F /  10.8 °C 30in /  1014.6hPa ESE 2.9mph /  4.7km/h 3mph /  4.8km/h 66% 0in /  0.0mm 515 W/m2
10:42 63.5 °F /  17.5 °C 51.4 °F /  10.8 °C 30in /  1014.6hPa East 4mph /  6.4km/h 5mph /  8km/h 65% 0in /  0.0mm 526 W/m2
10:47 64 °F /  17.8 °C 52 °F /  11.1 °C 30in /  1014.6hPa ENE 2mph /  3.2km/h 3mph /  4.8km/h 65% 0in /  0.0mm 534 W/m2
10:52 64.2 °F /  17.9 °C 51.8 °F /  11 °C 30in /  1014.6hPa East 2mph /  3.2km/h 4mph /  6.4km/h 64% 0in /  0.0mm 548 W/m2
10:57 64.8 °F /  18.2 °C 51.8 °F /  11 °C 30in /  1014.6hPa East 2mph /  3.2km/h 3mph /  4.8km/h 63% 0in /  0.0mm 555 W/m2
11:02 64.9 °F /  18.3 °C 51.6 °F /  10.9 °C 30in /  1014.6hPa ESE 2.9mph /  4.7km/h 3mph /  4.8km/h 62% 0in /  0.0mm 568 W/m2
11:07 65.1 °F /  18.4 °C 51.3 °F /  10.7 °C 30in /  1014.6hPa ENE 2mph /  3.2km/h 4mph /  6.4km/h 61% 0in /  0.0mm 578 W/m2
11:12 65.7 °F /  18.7 °C 52.3 °F /  11.3 °C 30in /  1014.6hPa ENE 2.9mph /  4.7km/h 6mph /  9.7km/h 62% 0in /  0.0mm 584 W/m2
11:17 66 °F /  18.9 °C 52.2 °F /  11.2 °C 30in /  1014.6hPa NNE 0.9mph /  1.4km/h 6mph /  9.7km/h 61% 0in /  0.0mm 594 W/m2
11:22 66 °F /  18.9 °C 52.2 °F /  11.2 °C 30in /  1014.2hPa ENE 0.9mph /  1.4km/h 3mph /  4.8km/h 61% 0in /  0.0mm 601 W/m2
11:27 66.6 °F /  19.2 °C 52.2 °F /  11.2 °C 30in /  1014.2hPa East 2.9mph /  4.7km/h 6mph /  9.7km/h 60% 0in /  0.0mm 594 W/m2
11:32 66.9 °F /  19.4 °C 52.5 °F /  11.4 °C 30in /  1014.2hPa ESE 2.9mph /  4.7km/h 3mph /  4.8km/h 60% 0in /  0.0mm 615 W/m2
11:37 67.3 °F /  19.6 °C 52 °F /  11.1 °C 30in /  1014.2hPa ESE 2mph /  3.2km/h 6mph /  9.7km/h 58% 0in /  0.0mm 601 W/m2
11:42 67.3 °F /  19.6 °C 52 °F /  11.1 °C 30in /  1014.2hPa ESE 2mph /  3.2km/h 3mph /  4.8km/h 58% 0in /  0.0mm 633 W/m2
11:47 67.3 °F /  19.6 °C 51.1 °F /  10.6 °C 30in /  1014.2hPa SE 2mph /  3.2km/h 4mph /  6.4km/h 56% 0in /  0.0mm 635 W/m2
11:52 67.3 °F /  19.6 °C 51.4 °F /  10.8 °C 30in /  1014.2hPa ESE 4mph /  6.4km/h 4mph /  6.4km/h 57% 0in /  0.0mm 643 W/m2
11:57 67.5 °F /  19.7 °C 52.2 °F /  11.2 °C 30in /  1014.2hPa East 2mph /  3.2km/h 3mph /  4.8km/h 58% 0in /  0.0mm 650 W/m2
12:02 68.2 °F /  20.1 °C 51.8 °F /  11 °C 30in /  1014.2hPa NNE 0.9mph /  1.4km/h 7mph /  11.3km/h 56% 0in /  0.0mm 654 W/m2
12:07 68.2 °F /  20.1 °C 52.9 °F /  11.6 °C 30in /  1014.2hPa Calm   3mph /  4.8km/h 58% 0in /  0.0mm 659 W/m2
12:12 68.4 °F /  20.2 °C 52 °F /  11.1 °C 30in /  1014.2hPa ENE 0.9mph /  1.4km/h 7mph /  11.3km/h 56% 0in /  0.0mm 670 W/m2
12:17 68.5 °F /  20.3 °C 51.8 °F /  11 °C 30in /  1014.2hPa East 2mph /  3.2km/h 5mph /  8km/h 55% 0in /  0.0mm 670 W/m2
12:22 68.7 °F /  20.4 °C 52.3 °F /  11.3 °C 30in /  1014.2hPa ENE 0.9mph /  1.4km/h 3mph /  4.8km/h 56% 0in /  0.0mm 673 W/m2
12:27 69.4 °F /  20.8 °C 52.2 °F /  11.2 °C 30in /  1014.2hPa East 0.9mph /  1.4km/h 3mph /  4.8km/h 54% 0in /  0.0mm 679 W/m2
12:33 69.6 °F /  20.9 °C 51.8 °F /  11 °C 30in /  1014.2hPa ESE 2.9mph /  4.7km/h 6mph /  9.7km/h 53% 0in /  0.0mm 679 W/m2
12:38 69.4 °F /  20.8 °C 52.2 °F /  11.2 °C 30in /  1014.2hPa NE 0.9mph /  1.4km/h 2mph /  3.2km/h 54% 0in /  0.0mm 682 W/m2
12:43 69.8 °F /  21 °C 52.3 °F /  11.3 °C 29.9in /  1013.9hPa ENE 4mph /  6.4km/h 7mph /  11.3km/h 54% 0in /  0.0mm 687 W/m2
12:48 70 °F /  21.1 °C 52.5 °F /  11.4 °C 29.9in /  1013.9hPa East 4mph /  6.4km/h 4mph /  6.4km/h 54% 0in /  0.0mm 693 W/m2
12:53 70.2 °F /  21.2 °C 53.2 °F /  11.8 °C 29.9in /  1013.9hPa ESE 2mph /  3.2km/h 4mph /  6.4km/h 55% 0in /  0.0mm 691 W/m2
12:58 70.3 °F /  21.3 °C 51.8 °F /  11 °C 29.9in /  1013.9hPa NE 2mph /  3.2km/h 7mph /  11.3km/h 52% 0in /  0.0mm 694 W/m2
13:03 70.5 °F /  21.4 °C 52.5 °F /  11.4 °C 29.9in /  1013.9hPa East 2.9mph /  4.7km/h 4mph /  6.4km/h 53% 0in /  0.0mm 696 W/m2
13:08 70.7 °F /  21.5 °C 52.2 °F /  11.2 °C 29.9in /  1013.5hPa ENE 2mph /  3.2km/h 2mph /  3.2km/h 52% 0in /  0.0mm 696 W/m2
13:13 70.5 °F /  21.4 °C 51.4 °F /  10.8 °C 29.9in /  1013.5hPa Calm   2mph /  3.2km/h 51% 0in /  0.0mm 700 W/m2
13:18 70.9 °F /  21.6 °C 51.3 °F /  10.7 °C 29.9in /  1013.5hPa East 0.9mph /  1.4km/h 8mph /  12.9km/h 50% 0in /  0.0mm 701 W/m2
13:23 71.1 °F /  21.7 °C 52 °F /  11.1 °C 29.9in /  1013.5hPa ENE 4mph /  6.4km/h 4mph /  6.4km/h 51% 0in /  0.0mm 701 W/m2
13:28 71.2 °F /  21.8 °C 51.6 °F /  10.9 °C 29.9in /  1013.5hPa SE 2mph /  3.2km/h 8mph /  12.9km/h 50% 0in /  0.0mm 703 W/m2
13:33 71.6 °F /  22 °C 52 °F /  11.1 °C 29.9in /  1013.5hPa East 0.9mph /  1.4km/h 2mph /  3.2km/h 50% 0in /  0.0mm 703 W/m2
13:38 72.1 °F /  22.3 °C 52 °F /  11.1 °C 29.9in /  1013.5hPa ESE 4mph /  6.4km/h 7mph /  11.3km/h 49% 0in /  0.0mm 703 W/m2
13:43 72.5 °F /  22.5 °C 51.6 °F /  10.9 °C 29.9in /  1013.5hPa ENE 4.9mph /  7.9km/h 8mph /  12.9km/h 48% 0in /  0.0mm 700 W/m2
13:48 72.7 °F /  22.6 °C 51.3 °F /  10.7 °C 29.9in /  1013.2hPa East 2.9mph /  4.7km/h 4mph /  6.4km/h 47% 0in /  0.0mm 701 W/m2
13:53 73 °F /  22.8 °C 51.6 °F /  10.9 °C 29.9in /  1013.2hPa NE 2mph /  3.2km/h 3mph /  4.8km/h 47% 0in /  0.0mm 698 W/m2
13:58 73 °F /  22.8 °C 51.6 °F /  10.9 °C 29.9in /  1013.2hPa ESE 2.9mph /  4.7km/h 4mph /  6.4km/h 47% 0in /  0.0mm 694 W/m2
14:03 73 °F /  22.8 °C 51.1 °F /  10.6 °C 29.9in /  1013.2hPa ENE 2mph /  3.2km/h 2mph /  3.2km/h 46% 0in /  0.0mm 691 W/m2
14:08 73.4 °F /  23 °C 52 °F /  11.1 °C 29.9in /  1013.2hPa NW 0.9mph /  1.4km/h 3mph /  4.8km/h 47% 0in /  0.0mm 686 W/m2
14:13 73.8 °F /  23.2 °C 51.6 °F /  10.9 °C 29.9in /  1013.2hPa NE 2.9mph /  4.7km/h 4mph /  6.4km/h 46% 0in /  0.0mm 682 W/m2
14:18 73.8 °F /  23.2 °C 51.6 °F /  10.9 °C 29.9in /  1013.2hPa SE 2.9mph /  4.7km/h 6mph /  9.7km/h 46% 0in /  0.0mm 686 W/m2
14:23 74.1 °F /  23.4 °C 52.5 °F /  11.4 °C 29.9in /  1013.2hPa ESE 2.9mph /  4.7km/h 6mph /  9.7km/h 47% 0in /  0.0mm 680 W/m2
14:28 74.1 °F /  23.4 °C 51.4 °F /  10.8 °C 29.9in /  1013.2hPa Calm   3mph /  4.8km/h 45% 0in /  0.0mm 673 W/m2
14:33 74.1 °F /  23.4 °C 52 °F /  11.1 °C 29.9in /  1012.9hPa East 2mph /  3.2km/h 3mph /  4.8km/h 46% 0in /  0.0mm 675 W/m2
14:38 74.5 °F /  23.6 °C 52.9 °F /  11.6 °C 29.9in /  1012.9hPa NE 2mph /  3.2km/h 6mph /  9.7km/h 47% 0in /  0.0mm 668 W/m2
14:43 74.8 °F /  23.8 °C 53.8 °F /  12.1 °C 29.9in /  1012.9hPa ENE 2.9mph /  4.7km/h 4mph /  6.4km/h 48% 0in /  0.0mm 670 W/m2
14:48 75 °F /  23.9 °C 52.2 °F /  11.2 °C 29.9in /  1012.9hPa ENE 4mph /  6.4km/h 7mph /  11.3km/h 45% 0in /  0.0mm 666 W/m2
14:53 74.8 °F /  23.8 °C 52.2 °F /  11.2 °C 29.9in /  1012.9hPa NNW 2mph /  3.2km/h 8mph /  12.9km/h 45% 0in /  0.0mm 659 W/m2
14:58 75.2 °F /  24 °C 53.6 °F /  12 °C 29.9in /  1012.9hPa ESE 2mph /  3.2km/h 5mph /  8km/h 47% 0in /  0.0mm 659 W/m2
15:03 75.4 °F /  24.1 °C 52.5 °F /  11.4 °C 29.9in /  1012.9hPa NE 2mph /  3.2km/h 7mph /  11.3km/h 45% 0in /  0.0mm 661 W/m2
15:08 75.4 °F /  24.1 °C 53.2 °F /  11.8 °C 29.9in /  1012.9hPa SE 2.9mph /  4.7km/h 8mph /  12.9km/h 46% 0in /  0.0mm 650 W/m2
15:13 75.4 °F /  24.1 °C 52.5 °F /  11.4 °C 29.9in /  1012.9hPa ESE 2mph /  3.2km/h 3mph /  4.8km/h 45% 0in /  0.0mm 155 W/m2
15:18 75 °F /  23.9 °C 52.2 °F /  11.2 °C 29.9in /  1012.9hPa ENE 2.9mph /  4.7km/h 7mph /  11.3km/h 45% 0in /  0.0mm 155 W/m2
15:23 74.7 °F /  23.7 °C 53.1 °F /  11.7 °C 29.9in /  1012.9hPa ENE 4.9mph /  7.9km/h 6mph /  9.7km/h 47% 0in /  0.0mm 677 W/m2
15:28 74.5 °F /  23.6 °C 52.3 °F /  11.3 °C 29.9in /  1012.9hPa ESE 0.9mph /  1.4km/h 6mph /  9.7km/h 46% 0in /  0.0mm 679 W/m2
15:33 74.8 °F /  23.8 °C 52.7 °F /  11.5 °C 29.9in /  1012.5hPa ENE 2mph /  3.2km/h 4mph /  6.4km/h 46% 0in /  0.0mm 677 W/m2
15:38 75 °F /  23.9 °C 52.9 °F /  11.6 °C 29.9in /  1012.5hPa East 4mph /  6.4km/h 5mph /  8km/h 46% 0in /  0.0mm 679 W/m2
15:43 75.6 °F /  24.2 °C 52.2 °F /  11.2 °C 29.9in /  1012.5hPa ENE 0.9mph /  1.4km/h 2mph /  3.2km/h 44% 0in /  0.0mm 661 W/m2
15:48 75.7 °F /  24.3 °C 51.6 °F /  10.9 °C 29.9in /  1012.5hPa East 2mph /  3.2km/h 4mph /  6.4km/h 43% 0in /  0.0mm 144 W/m2
15:53 75.6 °F /  24.2 °C 51.4 °F /  10.8 °C 29.9in /  1012.5hPa East 2mph /  3.2km/h 3mph /  4.8km/h 43% 0in /  0.0mm 100 W/m2
15:58 75 °F /  23.9 °C 51.1 °F /  10.6 °C 29.9in /  1012.5hPa Calm   2mph /  3.2km/h 43% 0in /  0.0mm 135 W/m2
16:03 74.7 °F /  23.7 °C 51.3 °F /  10.7 °C 29.9in /  1012.2hPa SSE 2mph /  3.2km/h 5mph /  8km/h 44% 0in /  0.0mm 288 W/m2
16:08 74.5 °F /  23.6 °C 51.1 °F /  10.6 °C 29.9in /  1012.2hPa ENE 2mph /  3.2km/h 8mph /  12.9km/h 44% 0in /  0.0mm 116 W/m2
16:13 74.1 °F /  23.4 °C 52.5 °F /  11.4 °C 29.9in /  1012.2hPa East 6mph /  9.7km/h 6mph /  9.7km/h 47% 0in /  0.0mm 134 W/m2
16:18 73.8 °F /  23.2 °C 51.6 °F /  10.9 °C 29.9in /  1012.2hPa East 2mph /  3.2km/h 2mph /  3.2km/h 46% 0in /  0.0mm 155 W/m2
16:23 73.8 °F /  23.2 °C 51.1 °F /  10.6 °C 29.9in /  1012.2hPa SE 0.9mph /  1.4km/h 3mph /  4.8km/h 45% 0in /  0.0mm 172 W/m2
16:28 73.8 °F /  23.2 °C 51.1 °F /  10.6 °C 29.9in /  1012.2hPa ESE 2mph /  3.2km/h 4mph /  6.4km/h 45% 0in /  0.0mm 181 W/m2
16:33 73.9 °F /  23.3 °C 50.7 °F /  10.4 °C 29.9in /  1012.2hPa East 2.9mph /  4.7km/h 4mph /  6.4km/h 44% 0in /  0.0mm 504 W/m2
16:38 74.5 °F /  23.6 °C 50.5 °F /  10.3 °C 29.9in /  1011.9hPa ESE 2mph /  3.2km/h 3mph /  4.8km/h 43% 0in /  0.0mm 492 W/m2
16:43 74.8 °F /  23.8 °C 50.2 °F /  10.1 °C 29.9in /  1011.9hPa SE 0.9mph /  1.4km/h 4mph /  6.4km/h 42% 0in /  0.0mm 438 W/m2
16:49 75.4 °F /  24.1 °C 51.3 °F /  10.7 °C 29.9in /  1011.9hPa ESE 0.9mph /  1.4km/h 1mph /  1.6km/h 43% 0in /  0.0mm 461 W/m2
16:54 75.6 °F /  24.2 °C 51.4 °F /  10.8 °C 29.9in /  1011.9hPa ENE 2.9mph /  4.7km/h 4mph /  6.4km/h 43% 0in /  0.0mm 466 W/m2
16:59 75.6 °F /  24.2 °C 50.9 °F /  10.5 °C 29.9in /  1011.9hPa ENE 2mph /  3.2km/h 4mph /  6.4km/h 42% 0in /  0.0mm 450 W/m2
17:04 75 °F /  23.9 °C 50.4 °F /  10.2 °C 29.9in /  1011.9hPa East 4mph /  6.4km/h 5mph /  8km/h 42% 0in /  0.0mm 299 W/m2
17:09 74.7 °F /  23.7 °C 50 °F /  10 °C 29.9in /  1011.9hPa WNW 2mph /  3.2km/h 3mph /  4.8km/h 42% 0in /  0.0mm 278 W/m2
17:14 74.7 °F /  23.7 °C 50 °F /  10 °C 29.9in /  1011.9hPa Calm   1mph /  1.6km/h 42% 0in /  0.0mm 227 W/m2
17:19 74.8 °F /  23.8 °C 50.2 °F /  10.1 °C 29.9in /  1011.9hPa West 2mph /  3.2km/h 2mph /  3.2km/h 42% 0in /  0.0mm 355 W/m2
17:24 75 °F /  23.9 °C 50.4 °F /  10.2 °C 29.9in /  1011.9hPa West 2.9mph /  4.7km/h 4mph /  6.4km/h 42% 0in /  0.0mm 348 W/m2
17:29 75.2 °F /  24 °C 49.8 °F /  9.9 °C 29.9in /  1011.9hPa ESE 0.9mph /  1.4km/h 2mph /  3.2km/h 41% 0in /  0.0mm 355 W/m2
17:34 75.6 °F /  24.2 °C 51.4 °F /  10.8 °C 29.9in /  1011.9hPa SE 0.9mph /  1.4km/h 2mph /  3.2km/h 43% 0in /  0.0mm 302 W/m2
17:39 76.1 °F /  24.5 °C 50 °F /  10 °C 29.9in /  1011.9hPa Calm   1mph /  1.6km/h 40% 0in /  0.0mm 239 W/m2
17:44 75.9 °F /  24.4 °C 48.6 °F /  9.2 °C 29.9in /  1011.9hPa Calm   1mph /  1.6km/h 38% 0in /  0.0mm 294 W/m2
17:49 75.9 °F /  24.4 °C 50.5 °F /  10.3 °C 29.9in /  1011.9hPa ESE 6mph /  9.7km/h 6mph /  9.7km/h 41% 0in /  0.0mm 227 W/m2
17:54 75.7 °F /  24.3 °C 51.6 °F /  10.9 °C 29.9in /  1011.9hPa Calm   1mph /  1.6km/h 43% 0in /  0.0mm 236 W/m2
17:59 75.6 °F /  24.2 °C 48.9 °F /  9.4 °C 29.9in /  1011.9hPa ENE 0.9mph /  1.4km/h 4mph /  6.4km/h 39% 0in /  0.0mm 209 W/m2
18:04 75.4 °F /  24.1 °C 48.7 °F /  9.3 °C 29.9in /  1011.9hPa East 0.9mph /  1.4km/h 2mph /  3.2km/h 39% 0in /  0.0mm 221 W/m2
18:09 75 °F /  23.9 °C 49.1 °F /  9.5 °C 29.9in /  1011.9hPa ESE 0.9mph /  1.4km/h 3mph /  4.8km/h 40% 0in /  0.0mm 227 W/m2
18:14 75 °F /  23.9 °C 49.6 °F /  9.8 °C 29.9in /  1011.9hPa East 0.9mph /  1.4km/h 2mph /  3.2km/h 41% 0in /  0.0mm 237 W/m2
18:19 75 °F /  23.9 °C 50.4 °F /  10.2 °C 29.9in /  1011.9hPa SE 0.9mph /  1.4km/h 3mph /  4.8km/h 42% 0in /  0.0mm 221 W/m2
18:24 75 °F /  23.9 °C 50.4 °F /  10.2 °C 29.9in /  1011.9hPa Calm   2mph /  3.2km/h 42% 0in /  0.0mm 185 W/m2
18:29 75 °F /  23.9 °C 49.6 °F /  9.8 °C 29.9in /  1011.9hPa Calm   1mph /  1.6km/h 41% 0in /  0.0mm 181 W/m2
18:34 75 °F /  23.9 °C 49.1 °F /  9.5 °C 29.9in /  1011.9hPa Calm   3mph /  4.8km/h 40% 0in /  0.0mm 190 W/m2
18:39 74.8 °F /  23.8 °C 50.2 °F /  10.1 °C 29.9in /  1011.9hPa Calm   1mph /  1.6km/h 42% 0in /  0.0mm 132 W/m2
18:44 74.7 °F /  23.7 °C 50 °F /  10 °C 29.9in /  1011.9hPa SE 4mph /  6.4km/h 4mph /  6.4km/h 42% 0in /  0.0mm 146 W/m2
18:49 74.5 °F /  23.6 °C 49.3 °F /  9.6 °C 29.9in /  1011.5hPa East 0.9mph /  1.4km/h 1mph /  1.6km/h 41% 0in /  0.0mm 123 W/m2
18:54 74.1 °F /  23.4 °C 50.9 °F /  10.5 °C 29.9in /  1011.5hPa ESE 4mph /  6.4km/h 4mph /  6.4km/h 44% 0in /  0.0mm 109 W/m2
18:59 73.8 °F /  23.2 °C 50.5 °F /  10.3 °C 29.9in /  1011.9hPa Calm   1mph /  1.6km/h 44% 0in /  0.0mm 98 W/m2
19:04 73.6 °F /  23.1 °C 51.4 °F /  10.8 °C 29.9in /  1011.9hPa ESE 0.9mph /  1.4km/h 2mph /  3.2km/h 46% 0in /  0.0mm 102 W/m2
19:09 72.9 °F /  22.7 °C 52 °F /  11.1 °C 29.9in /  1011.9hPa ESE 0.9mph /  1.4km/h 1mph /  1.6km/h 48% 0in /  0.0mm 100 W/m2
19:14 72.3 °F /  22.4 °C 53.2 °F /  11.8 °C 29.9in /  1011.9hPa Calm   1mph /  1.6km/h 51% 0in /  0.0mm 102 W/m2
19:19 72.1 °F /  22.3 °C 53.1 °F /  11.7 °C 29.9in /  1011.9hPa Calm     51% 0in /  0.0mm 128 W/m2
19:24 72.1 °F /  22.3 °C 53.1 °F /  11.7 °C 29.9in /  1011.9hPa Calm   1mph /  1.6km/h 51% 0in /  0.0mm 132 W/m2
19:30 72.1 °F /  22.3 °C 53.1 °F /  11.7 °C 29.9in /  1011.9hPa Calm   2mph /  3.2km/h 51% 0in /  0.0mm 111 W/m2
19:35 72 °F /  22.2 °C 51.8 °F /  11 °C 29.9in /  1011.9hPa Calm   1mph /  1.6km/h 49% 0in /  0.0mm 95 W/m2
19:40 72 °F /  22.2 °C 53.4 °F /  11.9 °C 29.9in /  1011.9hPa Calm   1mph /  1.6km/h 52% 0in /  0.0mm 79 W/m2
19:45 72.1 °F /  22.3 °C 54.1 °F /  12.3 °C 29.9in /  1011.9hPa Calm     53% 0in /  0.0mm 53 W/m2
19:50 72 °F /  22.2 °C 53.4 °F /  11.9 °C 29.9in /  1011.9hPa Calm   1mph /  1.6km/h 52% 0in /  0.0mm 35 W/m2
19:55 71.6 °F /  22 °C 53.1 °F /  11.7 °C 29.9in /  1011.9hPa Calm     52% 0in /  0.0mm 26 W/m2
20:00 70.9 °F /  21.6 °C 52.3 °F /  11.3 °C 29.9in /  1011.9hPa Calm   1mph /  1.6km/h 52% 0in /  0.0mm 21 W/m2
20:05 70 °F /  21.1 °C 52 °F /  11.1 °C 29.9in /  1011.9hPa Calm     53% 0in /  0.0mm 18 W/m2
20:10 69.4 °F /  20.8 °C 51.6 °F /  10.9 °C 29.9in /  1011.9hPa SE 0.9mph /  1.4km/h 1mph /  1.6km/h 53% 0in /  0.0mm 16 W/m2
20:15 68.5 °F /  20.3 °C 50.7 °F /  10.4 °C 29.9in /  1011.9hPa Calm   1mph /  1.6km/h 53% 0in /  0.0mm 16 W/m2
20:20 67.6 °F /  19.8 °C 50.9 °F /  10.5 °C 29.9in /  1011.9hPa Calm     55% 0in /  0.0mm 12 W/m2
20:25 66.9 °F /  19.4 °C 50.7 °F /  10.4 °C 29.9in /  1011.9hPa Calm     56% 0in /  0.0mm 9 W/m2
20:30 66.2 °F /  19 °C 50.5 °F /  10.3 °C 29.9in /  1011.9hPa Calm     57% 0in /  0.0mm 5 W/m2
20:35 65.7 °F /  18.7 °C 50 °F /  10 °C 29.9in /  1011.9hPa SE 0.9mph /  1.4km/h 1mph /  1.6km/h 57% 0in /  0.0mm 5 W/m2
20:40 64.8 °F /  18.2 °C 50.2 °F /  10.1 °C 29.9in /  1011.9hPa Calm     59% 0in /  0.0mm 0 W/m2
20:45 64.2 °F /  17.9 °C 49.6 °F /  9.8 °C 29.9in /  1011.9hPa SE 0.9mph /  1.4km/h 2mph /  3.2km/h 59% 0in /  0.0mm 0 W/m2
20:50 63.7 °F /  17.6 °C 49.5 °F /  9.7 °C 29.9in /  1011.9hPa SSW 0.9mph /  1.4km/h 2mph /  3.2km/h 60% 0in /  0.0mm 0 W/m2
20:55 63.1 °F /  17.3 °C 49.1 °F /  9.5 °C 29.9in /  1011.9hPa WNW 0.9mph /  1.4km/h 2mph /  3.2km/h 60% 0in /  0.0mm 0 W/m2
21:00 62.8 °F /  17.1 °C 49.1 °F /  9.5 °C 29.9in /  1011.9hPa WNW 0.9mph /  1.4km/h 2mph /  3.2km/h 61% 0in /  0.0mm 0 W/m2
21:05 62.4 °F /  16.9 °C 48.7 °F /  9.3 °C 29.9in /  1011.9hPa WNW 0.9mph /  1.4km/h 1mph /  1.6km/h 61% 0in /  0.0mm 0 W/m2
21:10 62.1 °F /  16.7 °C 48.9 °F /  9.4 °C 29.9in /  1011.9hPa WNW 0.9mph /  1.4km/h 2mph /  3.2km/h 62% 0in /  0.0mm 0 W/m2
21:15 61.5 °F /  16.4 °C 48.4 °F /  9.1 °C 29.9in /  1011.9hPa Calm   1mph /  1.6km/h 62% 0in /  0.0mm 0 W/m2
21:20 61.3 °F /  16.3 °C 48.6 °F /  9.2 °C 29.9in /  1011.9hPa Calm     63% 0in /  0.0mm 0 W/m2
21:25 61 °F /  16.1 °C 48.4 °F /  9.1 °C 29.9in /  1011.9hPa Calm     63% 0in /  0.0mm 0 W/m2
21:30 60.6 °F /  15.9 °C 48.4 °F /  9.1 °C 29.9in /  1011.9hPa Calm     64% 0in /  0.0mm 0 W/m2
21:35 60.4 °F /  15.8 °C 47.8 °F /  8.8 °C 29.9in /  1012.2hPa WNW 0.9mph /  1.4km/h 1mph /  1.6km/h 63% 0in /  0.0mm 0 W/m2
21:40 60.3 °F /  15.7 °C 48 °F /  8.9 °C 29.9in /  1012.2hPa Calm     64% 0in /  0.0mm 0 W/m2
21:45 60.3 °F /  15.7 °C 48.4 °F /  9.1 °C 29.9in /  1012.2hPa Calm     65% 0in /  0.0mm 0 W/m2
21:50 60.1 °F /  15.6 °C 48.2 °F /  9 °C 29.9in /  1012.2hPa Calm     65% 0in /  0.0mm 0 W/m2
21:55 59.7 °F /  15.4 °C 48 °F /  8.9 °C 29.9in /  1012.2hPa Calm     65% 0in /  0.0mm 0 W/m2
22:00 59.5 °F /  15.3 °C 48.2 °F /  9 °C 29.9in /  1012.2hPa Calm     66% 0in /  0.0mm 0 W/m2
22:05 59.4 °F /  15.2 °C 48 °F /  8.9 °C 29.9in /  1012.2hPa Calm     66% 0in /  0.0mm 0 W/m2
22:10 59.2 °F /  15.1 °C 47.8 °F /  8.8 °C 29.9in /  1012.2hPa WNW 0.9mph /  1.4km/h 1mph /  1.6km/h 66% 0in /  0.0mm 0 W/m2
22:15 58.8 °F /  14.9 °C 47.5 °F /  8.6 °C 29.9in /  1012.2hPa Calm     66% 0in /  0.0mm 0 W/m2
22:21 58.6 °F /  14.8 °C 47.3 °F /  8.5 °C 29.9in /  1012.2hPa Calm     66% 0in /  0.0mm 0 W/m2
22:26 58.6 °F /  14.8 °C 47.3 °F /  8.5 °C 29.9in /  1012.2hPa Calm     66% 0in /  0.0mm 0 W/m2
22:31 58.5 °F /  14.7 °C 47.5 °F /  8.6 °C 29.9in /  1012.2hPa Calm     67% 0in /  0.0mm 0 W/m2
22:36 58.3 °F /  14.6 °C 47.8 °F /  8.8 °C 29.9in /  1012.2hPa Calm   1mph /  1.6km/h 68% 0in /  0.0mm 0 W/m2
22:41 57.9 °F /  14.4 °C 47.5 °F /  8.6 °C 29.9in /  1012.5hPa Calm     68% 0in /  0.0mm 0 W/m2
22:46 57.7 °F /  14.3 °C 47.7 °F /  8.7 °C 29.9in /  1012.2hPa Calm     69% 0in /  0.0mm 0 W/m2
22:51 57.6 °F /  14.2 °C 47.5 °F /  8.6 °C 29.9in /  1012.2hPa Calm     69% 0in /  0.0mm 0 W/m2
22:56 57.4 °F /  14.1 °C 47.7 °F /  8.7 °C 29.9in /  1012.5hPa Calm     70% 0in /  0.0mm 0 W/m2
23:01 57.2 °F /  14 °C 47.8 °F /  8.8 °C 29.9in /  1012.2hPa Calm     71% 0in /  0.0mm 0 W/m2
23:06 57 °F /  13.9 °C 47.7 °F /  8.7 °C 29.9in /  1012.2hPa Calm     71% 0in /  0.0mm 0 W/m2
23:11 56.8 °F /  13.8 °C 47.5 °F /  8.6 °C 29.9in /  1012.2hPa Calm     71% 0in /  0.0mm 0 W/m2
23:16 56.7 °F /  13.7 °C 47.3 °F /  8.5 °C 29.9in /  1012.2hPa Calm     71% 0in /  0.0mm 0 W/m2
23:21 56.7 °F /  13.7 °C 47.3 °F /  8.5 °C 29.9in /  1012.2hPa Calm     71% 0in /  0.0mm 0 W/m2
23:26 56.7 °F /  13.7 °C 47.3 °F /  8.5 °C 29.9in /  1012.2hPa Calm     71% 0in /  0.0mm 0 W/m2
23:31 56.5 °F /  13.6 °C 47.5 °F /  8.6 °C 29.9in /  1012.2hPa Calm     72% 0in /  0.0mm 0 W/m2
23:36 56.3 °F /  13.5 °C 47.5 °F /  8.6 °C 29.9in /  1012.2hPa Calm     72% 0in /  0.0mm 0 W/m2
23:41 56.1 °F /  13.4 °C 47.7 °F /  8.7 °C 29.9in /  1012.2hPa Calm     73% 0in /  0.0mm 0 W/m2
23:46 55.9 °F /  13.3 °C 47.5 °F /  8.6 °C 29.9in /  1012.5hPa Calm     73% 0in /  0.0mm 0 W/m2
23:51 55.8 °F /  13.2 °C 47.3 °F /  8.5 °C 29.9in /  1012.5hPa Calm     73% 0in /  0.0mm 0 W/m2
23:56 55.8 °F /  13.2 °C 47.7 °F /  8.7 °C 29.9in /  1012.5hPa Calm     74% 0in /  0.0mm 0 W/m2
Juneau County Weather
Compliments of Weather Underground - 2 mb